This is the latest recevied weather packets stored in our database for station/object DK8RG-15. If no packets are shown the sender has not sent any weather packets the latest 10 day(s).
| Time | Temp. | Humidity | Pressure | Rain* | Wind** | Luminosity | Snow |
|---|---|---|---|---|---|---|---|
| 1787413218 | 17.22° C | 59% | 1001.7 hPa | 0 mm | - | 339 W/m² | - |
| 1787412619 | 18.33° C | 59% | 1001.8 hPa | 0 mm | - | 189 W/m² | - |
| 1787412018 | 17.22° C | 64% | 1001.7 hPa | 0 mm | - | 507 W/m² | - |
| 1787411418 | 17.22° C | 66% | 1001.7 hPa | 0 mm | - | 262 W/m² | - |
| 1787410819 | 16.67° C | 66% | 1001.7 hPa | 0 mm | - | 231 W/m² | - |
| 1787410218 | 17.22° C | 67% | 1001.8 hPa | 0 mm | - | 353 W/m² | - |
| 1787409619 | 17.22° C | 68% | 1001.8 hPa | 0 mm | - | 505 W/m² | - |
| 1787409018 | 15.56° C | 74% | 1001.6 hPa | 0 mm | - | 752 W/m² | - |
| 1787408419 | 15° C | 80% | 1001.6 hPa | 0 mm | - | 290 W/m² | - |
| 1787407818 | 16.11° C | 72% | 1001.7 hPa | 0 mm | - | 63 W/m² | - |
| 1787407219 | 17.22° C | 59% | 1001.8 hPa | 0 mm | - | 58 W/m² | - |
| 1787406619 | 17.78° C | 59% | 1001.8 hPa | 0 mm | - | 139 W/m² | - |
| 1787406019 | 17.78° C | 56% | 1001.8 hPa | 0 mm | - | 302 W/m² | - |
| 1787405418 | 17.22° C | 58% | 1001.7 hPa | 0 mm | - | 263 W/m² | - |
| 1787404819 | 17.22° C | 59% | 1001.7 hPa | 0 mm | - | 248 W/m² | - |
| 1787404218 | 17.22° C | 63% | 1001.7 hPa | 0 mm | - | 228 W/m² | - |
| 1787403618 | 17.78° C | 61% | 1001.8 hPa | 0 mm | - | 218 W/m² | - |
| 1787403019 | 17.22° C | 62% | 1001.7 hPa | 0 mm | - | 251 W/m² | - |
| 1787402418 | 18.33° C | 59% | 1001.8 hPa | 0 mm | - | 195 W/m² | - |
| 1787401819 | 17.22° C | 60% | 1001.7 hPa | 0 mm | - | 677 W/m² | - |
| 1787401219 | 17.22° C | 62% | 1001.7 hPa | 0 mm | - | 354 W/m² | - |
| 1787400619 | 17.78° C | 61% | 1001.7 hPa | 0 mm | - | 947 W/m² | - |
| 1787400020 | 17.22° C | 62% | 1001.7 hPa | 0 mm | - | 854 W/m² | - |
| 1787399419 | 16.11° C | 64% | 1001.6 hPa | 0 mm | - | 733 W/m² | - |
| 1787398222 | 16.11° C | 64% | 1001.6 hPa | 0 mm | - | 809 W/m² | - |
* Rain latest hour (hover to see other rain measurements)
** Current wind speed in m/s (hover to see current wind gust speed)